createdAt,value
2023-02-21T00:02:31.832Z,17.65
2023-02-21T00:05:23.865Z,15.23
2023-02-21T00:08:14.284Z,16.38
2023-02-21T00:11:03.141Z,15.68
2023-02-21T00:13:51.736Z,15.95
2023-02-21T00:16:38.361Z,18.58
2023-02-21T00:22:14.029Z,14.90
2023-02-21T00:25:03.299Z,15.70
2023-02-21T00:27:49.449Z,16.05
2023-02-21T00:30:39.908Z,17.33
2023-02-21T00:33:25.504Z,16.17
2023-02-21T00:36:10.370Z,15.85
2023-02-21T00:38:56.675Z,16.40
2023-02-21T00:41:45.742Z,18.48
2023-02-21T00:44:41.462Z,19.67
2023-02-21T00:47:26.849Z,19.83
2023-02-21T00:50:12.819Z,18.73
2023-02-21T00:52:58.720Z,21.17
2023-02-21T00:55:53.635Z,20.52
2023-02-21T00:58:42.447Z,20.02
2023-02-21T01:01:30.224Z,18.65
2023-02-21T01:04:17.362Z,19.42
2023-02-21T01:07:02.798Z,19.58
2023-02-21T01:09:51.404Z,17.50
2023-02-21T01:12:40.185Z,21.30
2023-02-21T01:15:25.674Z,22.30
2023-02-21T01:18:11.520Z,20.98
2023-02-21T01:21:02.645Z,18.85
2023-02-21T01:23:49.779Z,19.92
2023-02-21T01:26:35.065Z,21.73
2023-02-21T01:29:21.625Z,21.23
2023-02-21T01:32:11.254Z,21.83
2023-02-21T01:35:00.270Z,19.98
2023-02-21T01:37:54.327Z,19.45
2023-02-21T01:40:40.590Z,21.00
2023-02-21T01:43:44.787Z,20.95
2023-02-21T01:46:35.891Z,21.77
2023-02-21T01:49:28.215Z,24.58
2023-02-21T01:52:14.347Z,22.20
2023-02-21T01:55:10.651Z,22.83
2023-02-21T01:57:58.136Z,24.60
2023-02-21T02:00:45.270Z,20.92
2023-02-21T02:03:34.643Z,19.27
2023-02-21T02:06:25.337Z,18.67
2023-02-21T02:09:14.376Z,20.75
2023-02-21T02:12:25.546Z,20.02
2023-02-21T02:15:27.188Z,17.83
2023-02-21T02:18:07.245Z,21.13
2023-02-21T02:20:42.800Z,17.88
2023-02-21T02:23:35.689Z,17.65
2023-02-21T02:26:14.762Z,19.63
2023-02-21T02:29:00.341Z,18.75
2023-02-21T02:31:43.266Z,17.80
2023-02-21T02:34:28.972Z,19.77
2023-02-21T02:37:23.928Z,22.27
2023-02-21T02:40:23.472Z,18.00
2023-02-21T02:43:15.060Z,16.23
2023-02-21T02:46:15.363Z,18.85
2023-02-21T02:48:50.700Z,17.63
2023-02-21T02:51:18.317Z,17.63
2023-02-21T02:54:12.069Z,16.75
2023-02-21T02:56:39.069Z,16.98
2023-02-21T02:59:23.213Z,19.00
2023-02-21T03:01:50.070Z,18.30
2023-02-21T03:04:49.140Z,18.23
2023-02-21T03:07:37.554Z,18.98
2023-02-21T03:10:42.582Z,18.80
2023-02-21T03:13:11.779Z,17.48
2023-02-21T03:15:41.144Z,24.67
2023-02-21T03:18:17.980Z,21.15
2023-02-21T03:20:50.452Z,19.63
2023-02-21T03:23:26.381Z,19.38
2023-02-21T03:26:00.019Z,18.05
2023-02-21T03:28:30.480Z,18.45
2023-02-21T03:31:04.208Z,18.17
2023-02-21T03:33:36.336Z,18.50
2023-02-21T03:36:10.545Z,15.82
2023-02-21T03:38:44.835Z,17.58
2023-02-21T03:41:13.063Z,15.75
2023-02-21T03:43:48.903Z,15.52
2023-02-21T03:46:24.353Z,14.98
2023-02-21T03:48:53.565Z,16.77
2023-02-21T03:51:32.337Z,19.05
2023-02-21T03:54:05.143Z,16.70
2023-02-21T03:56:41.851Z,17.05
2023-02-21T03:59:18.971Z,18.30
2023-02-21T04:01:48.844Z,17.42
2023-02-21T04:04:42.795Z,18.50
2023-02-21T04:07:20.441Z,17.30
2023-02-21T04:09:55.564Z,16.48
2023-02-21T04:12:22.608Z,18.13
2023-02-21T04:15:05.702Z,18.85
2023-02-21T04:17:50.134Z,17.70
2023-02-21T04:20:21.167Z,17.33
2023-02-21T04:23:03.152Z,16.85
2023-02-21T04:25:33.789Z,19.00
2023-02-21T04:28:05.115Z,16.95
2023-02-21T04:30:40.820Z,20.80
2023-02-21T04:33:13.509Z,17.60
2023-02-21T04:35:51.646Z,20.08
2023-02-21T04:38:19.615Z,17.52
2023-02-21T04:40:48.546Z,16.35
2023-02-21T04:43:16.281Z,18.17
2023-02-21T04:45:46.447Z,17.42
2023-02-21T04:48:15.750Z,17.60
2023-02-21T04:50:51.878Z,22.27
2023-02-21T04:53:22.729Z,18.40
2023-02-21T04:55:51.609Z,19.48
2023-02-21T04:58:18.500Z,18.00
2023-02-21T05:00:45.654Z,18.90
2023-02-21T05:03:12.280Z,18.88
2023-02-21T05:05:41.911Z,19.70
2023-02-21T05:08:08.533Z,19.85
2023-02-21T05:10:45.207Z,22.23
2023-02-21T05:13:14.137Z,24.10
2023-02-21T05:15:48.009Z,23.73
2023-02-21T05:20:46.556Z,24.08
2023-02-21T05:23:19.152Z,25.42
2023-02-21T05:25:45.934Z,20.50
2023-02-21T05:28:15.831Z,23.60
2023-02-21T05:30:45.525Z,24.15
2023-02-21T05:33:12.190Z,24.75
2023-02-21T05:35:38.815Z,23.15
2023-02-21T05:38:13.349Z,23.67
2023-02-21T05:40:39.961Z,21.05
2023-02-21T05:43:08.921Z,21.55
2023-02-21T05:45:46.509Z,21.90
2023-02-21T05:48:27.504Z,25.27
2023-02-21T05:50:56.603Z,23.23
2023-02-21T05:53:23.725Z,28.88
2023-02-21T05:55:55.697Z,23.05
2023-02-21T05:58:22.373Z,22.98
2023-02-21T06:00:54.918Z,27.90
2023-02-21T06:03:22.068Z,26.88
2023-02-21T06:05:48.764Z,26.02
2023-02-21T06:08:25.977Z,28.45
2023-02-21T06:10:56.864Z,33.28
2023-02-21T06:13:32.178Z,33.88
2023-02-21T06:16:02.122Z,24.50
2023-02-21T06:18:28.749Z,24.73
2023-02-21T06:20:57.767Z,27.27
2023-02-21T06:23:28.854Z,26.42
2023-02-21T06:25:57.483Z,29.52
2023-02-21T06:28:38.046Z,29.10
2023-02-21T06:31:11.566Z,31.33
2023-02-21T06:33:38.260Z,28.02
2023-02-21T06:36:20.953Z,24.60
2023-02-21T06:39:05.353Z,29.33
2023-02-21T06:41:35.481Z,30.75
2023-02-21T06:44:02.671Z,31.38
2023-02-21T06:46:40.792Z,30.13
2023-02-21T06:49:07.464Z,30.58
2023-02-21T06:51:41.399Z,32.72
2023-02-21T06:56:40.912Z,34.83
2023-02-21T06:59:17.439Z,37.42
2023-02-21T07:01:44.954Z,34.90
2023-02-21T07:06:41.543Z,25.35
2023-02-21T07:09:11.904Z,34.08
2023-02-21T07:11:38.564Z,34.85
2023-02-21T07:14:31.639Z,30.40
2023-02-21T07:16:58.273Z,29.17
2023-02-21T07:19:25.068Z,29.45
2023-02-21T07:21:54.454Z,28.45
2023-02-21T07:24:21.059Z,25.63
2023-02-21T07:26:47.808Z,33.75
2023-02-21T07:29:23.069Z,28.92
2023-02-21T07:31:49.814Z,24.70
2023-02-21T07:34:20.136Z,20.40
2023-02-21T07:36:46.862Z,18.27
2023-02-21T07:39:13.472Z,25.48
2023-02-21T07:41:40.206Z,26.00
2023-02-21T07:44:08.029Z,29.27
2023-02-21T07:46:34.945Z,23.33
2023-02-21T07:49:04.695Z,23.20
2023-02-21T07:51:31.463Z,21.05
2023-02-21T07:53:58.136Z,23.90
2023-02-21T07:56:24.847Z,20.05
2023-02-21T07:58:51.444Z,23.02
2023-02-21T08:01:18.235Z,15.43
2023-02-21T08:03:45.978Z,17.33
2023-02-21T08:06:12.698Z,14.88
2023-02-21T08:08:39.400Z,14.85
2023-02-21T08:11:06.436Z,16.83
2023-02-21T08:13:33.554Z,15.55
2023-02-21T08:16:00.248Z,15.95
2023-02-21T08:18:27.052Z,13.93
2023-02-21T08:20:55.394Z,15.80
2023-02-21T08:23:22.706Z,14.43
2023-02-21T08:25:50.088Z,12.25
2023-02-21T08:28:17.734Z,12.30
2023-02-21T08:30:44.488Z,15.23
2023-02-21T08:33:14.302Z,12.90
2023-02-21T08:35:40.985Z,12.07
2023-02-21T08:38:08.581Z,11.10
2023-02-21T08:40:35.440Z,10.85
2023-02-21T08:43:15.076Z,11.57
2023-02-21T08:45:41.756Z,12.07
2023-02-21T08:48:10.882Z,11.40
2023-02-21T08:50:43.716Z,12.18
2023-02-21T08:53:22.699Z,11.60
2023-02-21T08:55:49.324Z,11.50
2023-02-21T08:58:19.005Z,11.38
2023-02-21T09:00:48.636Z,11.57
2023-02-21T09:03:18.035Z,11.27
2023-02-21T09:05:44.700Z,11.35
2023-02-21T09:08:14.338Z,12.63
2023-02-21T09:10:47.837Z,11.05
2023-02-21T09:13:15.048Z,11.07
2023-02-21T09:15:41.747Z,10.32
2023-02-21T09:18:12.967Z,11.88
2023-02-21T09:20:42.487Z,12.55
2023-02-21T09:23:09.998Z,10.93
2023-02-21T09:28:12.123Z,12.43
2023-02-21T09:30:46.801Z,11.13
2023-02-21T09:33:17.415Z,10.98
2023-02-21T09:35:47.096Z,12.00
2023-02-21T09:38:13.808Z,11.18
2023-02-21T09:40:55.606Z,14.55
2023-02-21T09:43:36.410Z,12.05
2023-02-21T09:46:11.721Z,14.48
2023-02-21T09:48:42.304Z,12.02
2023-02-21T09:51:14.139Z,14.80
2023-02-21T09:53:46.870Z,11.90
2023-02-21T09:56:25.351Z,14.70
2023-02-21T09:58:55.543Z,11.55
2023-02-21T10:02:09.375Z,12.25
2023-02-21T10:05:03.571Z,11.48
2023-02-21T10:07:57.728Z,11.45
2023-02-21T10:10:51.316Z,11.88
2023-02-21T10:13:46.751Z,11.35
2023-02-21T10:16:21.614Z,10.48
2023-02-21T10:19:31.337Z,11.43
2023-02-21T10:22:04.688Z,11.00
2023-02-21T10:24:31.732Z,11.18
2023-02-21T10:27:11.620Z,11.70
2023-02-21T10:29:50.931Z,10.80
2023-02-21T10:32:21.524Z,11.95
2023-02-21T10:34:58.818Z,11.85
2023-02-21T10:37:43.815Z,11.98
2023-02-21T10:40:41.677Z,11.57
2023-02-21T10:43:22.324Z,10.23
2023-02-21T10:46:23.307Z,12.25
2023-02-21T10:48:53.154Z,11.10
2023-02-21T10:51:35.023Z,11.02
2023-02-21T10:54:24.791Z,10.45
2023-02-21T10:56:56.470Z,11.27
2023-02-21T10:59:26.874Z,11.38
2023-02-21T11:01:55.113Z,11.85
2023-02-21T11:04:23.978Z,10.70
2023-02-21T11:06:55.801Z,11.50
2023-02-21T11:09:35.167Z,10.35
2023-02-21T11:12:18.701Z,10.38
2023-02-21T11:15:18.913Z,10.95
2023-02-21T11:18:02.277Z,11.05
2023-02-21T11:20:32.197Z,10.60
2023-02-21T11:22:59.061Z,11.07
2023-02-21T11:25:42.106Z,14.55
2023-02-21T11:28:20.496Z,10.95
2023-02-21T11:30:59.291Z,11.05
2023-02-21T11:33:26.560Z,10.57
2023-02-21T11:38:40.920Z,10.70
2023-02-21T11:41:21.056Z,11.20
2023-02-21T11:43:52.745Z,14.00
2023-02-21T11:46:28.125Z,10.02
2023-02-21T11:49:15.291Z,11.85
2023-02-21T11:51:47.324Z,11.20
2023-02-21T11:54:14.266Z,11.80
2023-02-21T11:57:04.576Z,10.32
2023-02-21T11:59:59.607Z,12.85
2023-02-21T12:02:32.431Z,12.10
2023-02-21T12:05:20.530Z,12.43
2023-02-21T12:08:18.148Z,13.32
2023-02-21T12:11:02.885Z,10.57
2023-02-21T12:14:12.854Z,13.60
2023-02-21T12:17:15.157Z,11.20
2023-02-21T12:19:58.588Z,16.38
2023-02-21T12:22:47.049Z,11.55
2023-02-21T12:25:42.192Z,12.75
2023-02-21T12:28:26.993Z,12.15
2023-02-21T12:31:18.947Z,10.95
2023-02-21T12:34:16.875Z,12.00
2023-02-21T12:37:04.117Z,12.02
2023-02-21T12:39:56.391Z,11.55
2023-02-21T12:42:50.560Z,14.00
2023-02-21T12:45:42.845Z,12.02
2023-02-21T12:48:26.195Z,12.20
2023-02-21T12:51:03.612Z,12.98
2023-02-21T12:53:38.968Z,11.50
2023-02-21T12:56:18.367Z,10.63
2023-02-21T12:58:55.637Z,10.93
2023-02-21T13:01:33.165Z,12.82
2023-02-21T13:04:31.123Z,11.52
2023-02-21T13:07:21.696Z,11.48
2023-02-21T13:10:05.592Z,11.25
2023-02-21T13:13:16.276Z,11.85
2023-02-21T13:15:51.774Z,11.65
2023-02-21T13:18:46.674Z,13.02
2023-02-21T13:21:28.417Z,12.60
2023-02-21T13:24:18.615Z,11.77
2023-02-21T13:27:13.298Z,15.30
2023-02-21T13:29:42.613Z,11.77
2023-02-21T13:32:14.294Z,11.93
2023-02-21T13:34:53.877Z,13.73
2023-02-21T13:37:27.405Z,11.38
2023-02-21T13:40:01.592Z,10.77
2023-02-21T13:42:30.242Z,13.10
2023-02-21T13:45:22.388Z,11.75
2023-02-21T13:48:06.976Z,10.40
2023-02-21T13:50:39.768Z,10.35
2023-02-21T13:53:09.369Z,9.38
2023-02-21T13:55:41.558Z,11.35
2023-02-21T13:58:18.831Z,10.82
2023-02-21T14:00:50.401Z,11.50
2023-02-21T14:03:32.860Z,15.38
2023-02-21T14:06:08.337Z,15.98
2023-02-21T14:08:56.636Z,12.30
2023-02-21T14:11:32.283Z,13.82
2023-02-21T14:14:05.106Z,14.45
2023-02-21T14:16:46.338Z,11.60
2023-02-21T14:19:44.156Z,13.10
2023-02-21T14:22:31.457Z,10.85
2023-02-21T14:25:28.845Z,9.75
2023-02-21T14:28:05.302Z,11.30
2023-02-21T14:30:40.556Z,11.50
2023-02-21T14:33:21.138Z,12.63
2023-02-21T14:36:09.107Z,10.38
2023-02-21T14:38:41.573Z,11.07
2023-02-21T14:41:45.527Z,16.05
2023-02-21T14:44:54.319Z,15.25
2023-02-21T14:47:41.457Z,14.25
2023-02-21T14:50:20.358Z,13.30
2023-02-21T14:52:59.595Z,11.15
2023-02-21T14:55:56.062Z,9.95
2023-02-21T14:58:53.434Z,11.18
2023-02-21T15:01:31.760Z,10.20
2023-02-21T15:04:08.917Z,9.70
2023-02-21T15:06:46.205Z,11.52
2023-02-21T15:09:18.324Z,14.52
2023-02-21T15:11:46.762Z,14.73
2023-02-21T15:14:29.558Z,15.27
2023-02-21T15:17:13.251Z,22.23
2023-02-21T15:19:40.470Z,14.98
2023-02-21T15:22:18.271Z,13.48
2023-02-21T15:25:09.750Z,16.45
2023-02-21T15:27:50.999Z,10.70
2023-02-21T15:30:30.934Z,17.55
2023-02-21T15:33:06.746Z,12.88
2023-02-21T15:35:40.398Z,18.33
2023-02-21T15:38:18.373Z,17.10
2023-02-21T15:40:55.905Z,18.05
2023-02-21T15:43:33.798Z,13.95
2023-02-21T15:46:03.868Z,11.75
2023-02-21T15:48:30.886Z,13.55
2023-02-21T15:51:05.073Z,11.30
2023-02-21T15:53:32.369Z,14.65
2023-02-21T15:56:35.834Z,11.75
2023-02-21T15:59:12.519Z,13.15
2023-02-21T16:01:40.228Z,14.65
2023-02-21T16:04:23.476Z,11.50
2023-02-21T16:06:55.955Z,14.82
2023-02-21T16:09:31.528Z,11.07
2023-02-21T16:12:20.669Z,11.77
2023-02-21T16:15:02.524Z,11.80
2023-02-21T16:17:35.783Z,13.52
2023-02-21T16:20:26.957Z,16.00
2023-02-21T16:23:38.388Z,10.73
2023-02-21T16:26:12.113Z,14.73
2023-02-21T16:28:41.121Z,15.98
2023-02-21T16:31:14.838Z,21.23
2023-02-21T16:33:42.383Z,15.95
2023-02-21T16:36:21.851Z,19.25
2023-02-21T16:38:48.795Z,11.68
2023-02-21T16:41:16.601Z,14.38
2023-02-21T16:43:43.895Z,16.80
2023-02-21T16:46:10.875Z,11.77
2023-02-21T16:48:37.697Z,21.67
2023-02-21T16:51:20.630Z,17.15
2023-02-21T16:53:48.582Z,9.23
2023-02-21T16:56:18.418Z,9.75
2023-02-21T16:58:53.017Z,13.73
2023-02-21T17:01:36.569Z,20.73
2023-02-21T17:04:27.056Z,13.48
2023-02-21T17:07:05.586Z,18.45
2023-02-21T17:09:41.928Z,14.98
2023-02-21T17:12:08.916Z,10.70
2023-02-21T17:14:35.997Z,14.98
2023-02-21T17:17:09.340Z,13.85
2023-02-21T17:19:36.026Z,10.70
2023-02-21T17:22:08.755Z,14.77
2023-02-21T17:24:35.369Z,17.20
2023-02-21T17:27:02.051Z,13.95
2023-02-21T17:29:31.752Z,10.88
2023-02-21T17:32:10.092Z,11.70
2023-02-21T17:34:43.262Z,15.35
2023-02-21T17:37:10.070Z,18.27
2023-02-21T17:39:37.552Z,18.05
2023-02-21T17:42:04.696Z,15.55
2023-02-21T17:44:33.480Z,18.33
2023-02-21T17:47:02.738Z,18.02
2023-02-21T17:49:29.443Z,16.58
2023-02-21T17:51:56.066Z,18.27
2023-02-21T17:54:24.554Z,14.15
2023-02-21T17:56:52.084Z,12.85
2023-02-21T18:01:46.940Z,17.40
2023-02-21T18:04:13.912Z,13.18
2023-02-21T18:06:42.135Z,11.52
2023-02-21T18:09:09.860Z,12.93
2023-02-21T18:11:38.154Z,10.88
2023-02-21T18:14:05.115Z,15.30
2023-02-21T18:16:31.963Z,9.98
2023-02-21T18:18:58.707Z,9.65
2023-02-21T18:21:27.493Z,16.80
2023-02-21T18:23:54.731Z,24.38
2023-02-21T18:26:21.746Z,15.27
2023-02-21T18:28:49.262Z,17.42
2023-02-21T18:33:49.318Z,18.08
2023-02-21T18:36:16.276Z,19.40
2023-02-21T18:38:47.544Z,21.70
2023-02-21T18:41:20.515Z,20.52
2023-02-21T18:43:47.402Z,16.40
2023-02-21T18:46:16.087Z,20.00
2023-02-21T18:48:50.470Z,10.95
2023-02-21T18:51:21.089Z,15.63
2023-02-21T18:53:49.119Z,18.30
2023-02-21T18:56:21.402Z,18.60
2023-02-21T18:58:49.592Z,17.65
2023-02-21T19:01:19.308Z,15.10
2023-02-21T19:03:49.761Z,19.33
2023-02-21T19:06:21.147Z,14.80
2023-02-21T19:08:50.468Z,20.85
2023-02-21T19:11:18.234Z,13.55
2023-02-21T19:13:51.326Z,18.35
2023-02-21T19:16:19.825Z,29.25
2023-02-21T19:18:47.317Z,16.05
2023-02-21T19:21:14.603Z,16.05
2023-02-21T19:26:09.016Z,23.05
2023-02-21T19:28:37.432Z,19.40
2023-02-21T19:31:04.942Z,13.05
2023-02-21T19:35:58.265Z,15.15
2023-02-21T19:38:27.835Z,22.40
2023-02-21T19:40:54.600Z,13.95
2023-02-21T19:43:21.275Z,17.63
2023-02-21T19:45:48.012Z,14.27
2023-02-21T19:48:16.082Z,16.55
2023-02-21T19:50:46.231Z,17.55
2023-02-21T19:53:12.981Z,16.80
2023-02-21T19:55:39.628Z,13.43
2023-02-21T19:58:08.554Z,20.08
2023-02-21T20:00:37.052Z,17.33
2023-02-21T20:03:03.859Z,14.00
2023-02-21T20:05:30.591Z,18.40
2023-02-21T20:07:58.895Z,20.98
2023-02-21T20:10:25.823Z,19.25
2023-02-21T20:12:53.524Z,13.10
2023-02-21T20:15:20.212Z,26.20
2023-02-21T20:17:50.000Z,16.52
2023-02-21T20:20:19.627Z,19.27
2023-02-21T20:22:46.976Z,21.35
2023-02-21T20:25:13.728Z,20.88
2023-02-21T20:27:48.415Z,20.45
2023-02-21T20:30:16.621Z,22.05
2023-02-21T20:32:43.343Z,11.10
2023-02-21T20:35:13.477Z,16.35
2023-02-21T20:37:40.176Z,20.55
2023-02-21T20:40:10.432Z,18.23
2023-02-21T20:42:37.498Z,21.45
2023-02-21T20:45:04.590Z,16.65
2023-02-21T20:47:31.914Z,23.08
2023-02-21T20:49:58.594Z,15.15
2023-02-21T20:52:25.242Z,13.02
2023-02-21T20:54:54.851Z,17.80
2023-02-21T20:57:21.456Z,12.10
2023-02-21T20:59:48.460Z,19.98
2023-02-21T21:02:15.259Z,17.70
2023-02-21T21:04:45.868Z,16.52
2023-02-21T21:07:16.456Z,16.77
2023-02-21T21:09:44.575Z,29.75
2023-02-21T21:12:14.510Z,16.80
2023-02-21T21:14:46.354Z,16.90
2023-02-21T21:17:16.366Z,14.50
2023-02-21T21:19:48.382Z,18.23
2023-02-21T21:22:18.463Z,23.45
2023-02-21T21:24:45.752Z,15.30
2023-02-21T21:27:15.660Z,19.48
2023-02-21T21:29:44.257Z,15.63
2023-02-21T21:32:12.792Z,15.57
2023-02-21T21:34:44.356Z,14.48
2023-02-21T21:37:11.718Z,13.55
2023-02-21T21:39:49.557Z,21.60
2023-02-21T21:42:20.264Z,24.65
2023-02-21T21:44:56.301Z,15.70
2023-02-21T21:47:32.034Z,15.57
2023-02-21T21:49:59.553Z,14.35
2023-02-21T21:52:26.134Z,15.70
2023-02-21T21:54:52.730Z,15.02
2023-02-21T21:57:22.744Z,25.00
2023-02-21T21:59:53.811Z,15.60
2023-02-21T22:02:20.507Z,17.30
2023-02-21T22:04:48.218Z,16.50
2023-02-21T22:07:15.932Z,22.45
2023-02-21T22:09:42.731Z,14.82
2023-02-21T22:12:17.151Z,16.45
2023-02-21T22:14:44.277Z,18.70
2023-02-21T22:17:11.799Z,16.95
2023-02-21T22:19:38.499Z,15.93
2023-02-21T22:22:08.434Z,21.70
2023-02-21T22:24:35.309Z,23.42
2023-02-21T22:27:03.878Z,20.27
2023-02-21T22:29:31.430Z,25.02
2023-02-21T22:32:01.212Z,23.00
2023-02-21T22:34:28.033Z,12.18
2023-02-21T22:37:01.139Z,22.77
2023-02-21T22:39:28.141Z,14.10
2023-02-21T22:41:57.496Z,18.38
2023-02-21T22:44:25.143Z,16.38
2023-02-21T22:46:58.784Z,20.13
2023-02-21T22:49:26.807Z,19.15
2023-02-21T22:51:53.442Z,26.40
2023-02-21T22:54:21.197Z,18.10
2023-02-21T22:56:52.563Z,29.08
2023-02-21T22:59:20.595Z,16.90
2023-02-21T23:01:47.370Z,18.40
2023-02-21T23:04:27.709Z,19.25
2023-02-21T23:09:24.828Z,22.35
2023-02-21T23:11:58.470Z,17.67
2023-02-21T23:14:26.159Z,15.35
2023-02-21T23:16:57.445Z,15.98
2023-02-21T23:19:25.756Z,15.77
2023-02-21T23:21:53.964Z,22.80
2023-02-21T23:24:21.912Z,18.45
2023-02-21T23:26:50.146Z,16.70
2023-02-21T23:29:19.510Z,16.50
2023-02-21T23:31:47.806Z,18.15
2023-02-21T23:34:17.581Z,23.52
2023-02-21T23:36:44.582Z,30.70
2023-02-21T23:39:15.321Z,17.88
2023-02-21T23:41:45.933Z,12.32
2023-02-21T23:44:14.062Z,18.88
2023-02-21T23:46:43.493Z,15.63
2023-02-21T23:49:16.037Z,14.88
2023-02-21T23:51:44.233Z,18.92
2023-02-21T23:54:11.689Z,13.48
2023-02-21T23:56:40.284Z,20.63
2023-02-21T23:59:09.801Z,11.75
